createdAt,value
2023-04-08T00:00:35.210Z,85.59
2023-04-08T00:03:02.357Z,84.82
2023-04-08T00:05:29.259Z,84.52
2023-04-08T00:07:55.800Z,84.82
2023-04-08T00:10:22.496Z,86.69
2023-04-08T00:12:52.981Z,87.74
2023-04-08T00:15:22.594Z,87.00
2023-04-08T00:17:51.449Z,84.95
2023-04-08T00:20:18.061Z,82.97
2023-04-08T00:22:44.520Z,81.84
2023-04-08T00:25:11.073Z,83.35
2023-04-08T00:27:37.651Z,84.75
2023-04-08T00:30:04.558Z,84.59
2023-04-08T00:32:31.044Z,84.91
2023-04-08T00:34:57.737Z,86.01
2023-04-08T00:37:25.082Z,88.40
2023-04-08T00:39:54.712Z,87.29
2023-04-08T00:42:22.135Z,86.81
2023-04-08T00:44:48.847Z,88.06
2023-04-08T00:47:16.491Z,88.25
2023-04-08T00:49:44.047Z,87.66
2023-04-08T00:52:11.022Z,87.92
2023-04-08T00:54:38.119Z,86.48
2023-04-08T00:57:05.951Z,84.86
2023-04-08T00:59:33.544Z,83.99
2023-04-08T01:02:22.740Z,84.19
2023-04-08T01:05:14.585Z,83.33
2023-04-08T01:07:48.120Z,83.31
2023-04-08T01:10:23.369Z,85.90
2023-04-08T01:13:10.100Z,85.26
2023-04-08T01:15:39.227Z,85.90
2023-04-08T01:18:07.817Z,86.23
2023-04-08T01:20:34.824Z,85.74
2023-04-08T01:23:01.318Z,84.87
2023-04-08T01:25:30.370Z,86.06
2023-04-08T01:27:58.556Z,88.15
2023-04-08T01:30:26.059Z,86.17
2023-04-08T01:32:56.728Z,83.53
2023-04-08T01:35:26.598Z,82.13
2023-04-08T01:37:57.420Z,82.60
2023-04-08T01:40:27.346Z,82.67
2023-04-08T01:42:57.042Z,84.15
2023-04-08T01:45:24.726Z,85.05
2023-04-08T01:47:53.091Z,83.86
2023-04-08T01:50:21.064Z,83.48
2023-04-08T01:52:49.866Z,83.74
2023-04-08T01:55:17.490Z,82.71
2023-04-08T01:57:48.874Z,81.21
2023-04-08T02:00:18.441Z,81.85
2023-04-08T02:02:47.427Z,81.63
2023-04-08T02:05:14.785Z,82.84
2023-04-08T02:07:41.404Z,83.83
2023-04-08T02:10:08.218Z,84.77
2023-04-08T02:12:34.963Z,84.90
2023-04-08T02:15:01.520Z,85.23
2023-04-08T02:17:55.846Z,85.69
2023-04-08T02:20:38.097Z,86.63
2023-04-08T02:23:17.020Z,86.64
2023-04-08T02:25:45.658Z,86.04
2023-04-08T02:28:12.798Z,84.61
2023-04-08T02:30:43.374Z,84.10
2023-04-08T02:33:11.952Z,84.32
2023-04-08T02:35:40.763Z,85.03
2023-04-08T02:38:07.485Z,86.18
2023-04-08T02:40:35.434Z,86.01
2023-04-08T02:43:01.902Z,86.12
2023-04-08T02:45:32.281Z,86.53
2023-04-08T02:48:02.394Z,86.38
2023-04-08T02:50:29.212Z,87.11
2023-04-08T02:52:56.043Z,88.40
2023-04-08T02:55:22.506Z,89.26
2023-04-08T02:57:48.969Z,89.99
2023-04-08T03:00:16.142Z,89.38
2023-04-08T03:02:42.794Z,88.68
2023-04-08T03:05:10.471Z,88.36
2023-04-08T03:07:37.514Z,87.26
2023-04-08T03:10:04.604Z,88.18
2023-04-08T03:12:31.524Z,88.15
2023-04-08T03:14:58.621Z,88.25
2023-04-08T03:17:25.128Z,87.64
2023-04-08T03:19:51.602Z,87.72
2023-04-08T03:22:18.065Z,86.10
2023-04-08T03:24:44.504Z,86.90
2023-04-08T03:27:12.459Z,86.97
2023-04-08T03:29:38.953Z,88.22
2023-04-08T03:32:05.670Z,89.96
2023-04-08T03:34:34.658Z,90.63
2023-04-08T03:37:01.721Z,90.72
2023-04-08T03:39:28.261Z,90.81
2023-04-08T03:41:54.746Z,90.57
2023-04-08T03:44:21.285Z,91.27
2023-04-08T03:46:47.777Z,91.45
2023-04-08T03:49:14.434Z,92.13
2023-04-08T03:51:41.033Z,92.40
2023-04-08T03:54:07.892Z,92.15
2023-04-08T03:56:34.418Z,91.17
2023-04-08T03:59:04.396Z,90.75
2023-04-08T04:01:32.250Z,90.91
2023-04-08T04:03:59.141Z,90.78
2023-04-08T04:06:26.526Z,90.66
2023-04-08T04:08:56.126Z,89.24
2023-04-08T04:11:22.678Z,87.89
2023-04-08T04:13:49.409Z,87.05
2023-04-08T04:16:16.118Z,86.86
2023-04-08T04:18:42.914Z,87.25
2023-04-08T04:21:09.791Z,88.58
2023-04-08T04:23:36.350Z,89.85
2023-04-08T04:26:08.337Z,89.88
2023-04-08T04:28:34.815Z,87.73
2023-04-08T04:31:01.286Z,87.20
2023-04-08T04:33:27.779Z,89.93
2023-04-08T04:35:54.319Z,91.02
2023-04-08T04:38:21.204Z,91.20
2023-04-08T04:40:47.758Z,91.45
2023-04-08T04:43:14.246Z,89.30
2023-04-08T04:45:40.719Z,86.25
2023-04-08T04:48:07.589Z,85.07
2023-04-08T04:50:34.030Z,85.01
2023-04-08T04:53:07.309Z,85.78
2023-04-08T04:55:34.677Z,86.52
2023-04-08T04:58:02.599Z,87.02
2023-04-08T05:00:29.134Z,87.12
2023-04-08T05:02:55.673Z,86.83
2023-04-08T05:05:22.396Z,86.65
2023-04-08T05:07:48.933Z,90.30
2023-04-08T05:10:18.386Z,93.93
2023-04-08T05:12:44.891Z,93.98
2023-04-08T05:15:11.657Z,94.15
2023-04-08T05:17:38.381Z,92.40
2023-04-08T05:20:05.350Z,93.49
2023-04-08T05:22:34.574Z,93.60
2023-04-08T05:25:01.182Z,94.56
2023-04-08T05:27:27.774Z,95.97
2023-04-08T05:29:54.494Z,95.97
2023-04-08T05:32:20.991Z,96.90
2023-04-08T05:34:47.556Z,98.58
2023-04-08T05:37:14.035Z,99.80
2023-04-08T05:39:40.801Z,100.00
2023-04-08T05:42:07.309Z,100.00
2023-04-08T05:44:37.266Z,100.00
2023-04-08T05:47:07.171Z,100.00
2023-04-08T05:49:36.477Z,100.00
2023-04-08T05:52:06.907Z,100.00
2023-04-08T05:54:34.016Z,100.00
2023-04-08T05:57:00.469Z,100.00
2023-04-08T05:59:26.959Z,100.00
2023-04-08T06:01:55.267Z,100.00
2023-04-08T06:04:21.947Z,100.00
2023-04-08T06:06:48.498Z,100.00
2023-04-08T06:09:15.013Z,100.00
2023-04-08T06:11:41.696Z,100.00
2023-04-08T06:14:11.052Z,100.00
2023-04-08T06:16:37.577Z,100.00
2023-04-08T06:19:04.448Z,100.00
2023-04-08T06:21:30.982Z,100.00
2023-04-08T06:23:57.526Z,100.00
2023-04-08T06:26:24.084Z,100.00
2023-04-08T06:28:50.891Z,100.00
2023-04-08T06:31:17.588Z,100.00
2023-04-08T06:33:44.171Z,99.13
2023-04-08T06:36:13.134Z,97.23
2023-04-08T06:38:39.570Z,98.22
2023-04-08T06:41:07.276Z,98.66
2023-04-08T06:43:38.230Z,97.57
2023-04-08T06:46:04.956Z,95.36
2023-04-08T06:48:33.611Z,95.25
2023-04-08T06:51:01.714Z,93.39
2023-04-08T06:53:36.130Z,94.24
2023-04-08T06:56:05.829Z,91.96
2023-04-08T06:58:33.529Z,92.39
2023-04-08T07:01:01.172Z,92.61
2023-04-08T07:03:27.777Z,90.72
2023-04-08T07:05:54.339Z,90.62
2023-04-08T07:08:20.842Z,90.62
2023-04-08T07:10:47.516Z,90.54
2023-04-08T07:13:14.085Z,88.62
2023-04-08T07:15:41.293Z,88.37
2023-04-08T07:18:07.745Z,87.65
2023-04-08T07:20:38.517Z,90.34
2023-04-08T07:23:05.238Z,89.69
2023-04-08T07:25:36.319Z,88.50
2023-04-08T07:28:06.259Z,87.90
2023-04-08T07:30:36.774Z,88.06
2023-04-08T07:33:06.413Z,89.03
2023-04-08T07:35:36.224Z,91.01
2023-04-08T07:38:05.734Z,89.96
2023-04-08T07:40:32.910Z,88.38
2023-04-08T07:42:59.542Z,85.52
2023-04-08T07:45:26.001Z,83.31
2023-04-08T07:47:52.576Z,81.14
2023-04-08T07:50:19.113Z,82.13
2023-04-08T07:52:45.705Z,81.46
2023-04-08T07:55:12.340Z,79.88
2023-04-08T07:57:39.078Z,76.79
2023-04-08T08:00:06.549Z,70.85
2023-04-08T08:02:35.028Z,70.20
2023-04-08T08:05:06.441Z,70.38
2023-04-08T08:07:35.703Z,70.62
2023-04-08T08:10:03.431Z,69.13
2023-04-08T08:12:29.943Z,67.44
2023-04-08T08:14:59.048Z,65.57
2023-04-08T08:17:27.728Z,64.40
2023-04-08T08:19:54.693Z,62.80
2023-04-08T08:22:21.251Z,62.32
2023-04-08T08:24:47.806Z,63.29
2023-04-08T08:27:14.238Z,61.68
2023-04-08T08:29:40.951Z,59.28
2023-04-08T08:32:07.408Z,57.66
2023-04-08T08:34:36.621Z,58.53
2023-04-08T08:37:06.046Z,58.32
2023-04-08T08:39:36.662Z,57.28
2023-04-08T08:42:06.598Z,55.82
2023-04-08T08:44:36.738Z,53.28
2023-04-08T08:47:06.288Z,53.04
2023-04-08T08:49:35.762Z,52.35
2023-04-08T08:52:04.352Z,53.11
2023-04-08T08:54:31.587Z,52.34
2023-04-08T08:56:59.081Z,48.24
2023-04-08T08:59:25.560Z,49.04
2023-04-08T09:01:52.052Z,51.14
2023-04-08T09:04:22.635Z,49.38
2023-04-08T09:06:51.537Z,49.74
2023-04-08T09:09:18.295Z,47.61
2023-04-08T09:11:46.804Z,46.87
2023-04-08T09:14:24.564Z,45.35
2023-04-08T09:16:52.130Z,45.83
2023-04-08T09:19:19.533Z,44.48
2023-04-08T09:21:46.090Z,44.53
2023-04-08T09:24:29.266Z,42.52
2023-04-08T09:26:56.654Z,42.90
2023-04-08T09:29:29.928Z,44.35
2023-04-08T09:32:01.543Z,46.30
2023-04-08T09:34:34.664Z,45.77
2023-04-08T09:37:01.421Z,44.69
2023-04-08T09:39:27.919Z,45.11
2023-04-08T09:41:58.471Z,43.17
2023-04-08T09:44:29.052Z,41.25
2023-04-08T09:46:55.443Z,43.26
2023-04-08T09:49:44.612Z,42.80
2023-04-08T09:52:20.955Z,41.53
2023-04-08T09:54:59.578Z,41.99
2023-04-08T09:57:35.308Z,42.00
2023-04-08T10:00:10.398Z,39.29
2023-04-08T10:03:06.333Z,40.73
2023-04-08T10:05:39.043Z,42.07
2023-04-08T10:08:07.171Z,41.22
2023-04-08T10:10:40.398Z,41.13
2023-04-08T10:13:08.024Z,40.63
2023-04-08T10:15:39.774Z,38.72
2023-04-08T10:18:13.922Z,37.97
2023-04-08T10:20:43.221Z,39.84
2023-04-08T10:23:13.923Z,38.25
2023-04-08T10:25:42.245Z,38.63
2023-04-08T10:28:11.503Z,39.91
2023-04-08T10:30:44.898Z,41.27
2023-04-08T10:33:16.964Z,39.27
2023-04-08T10:35:53.810Z,39.28
2023-04-08T10:38:21.503Z,38.53
2023-04-08T10:40:48.938Z,37.81
2023-04-08T10:43:16.141Z,37.35
2023-04-08T10:45:44.766Z,37.36
2023-04-08T10:48:24.615Z,38.30
2023-04-08T10:50:59.607Z,37.63
2023-04-08T10:53:35.528Z,38.05
2023-04-08T10:56:16.343Z,37.17
2023-04-08T10:58:50.601Z,37.42
2023-04-08T11:01:17.462Z,38.61
2023-04-08T11:03:44.342Z,37.71
2023-04-08T11:06:11.936Z,38.46
2023-04-08T11:08:38.903Z,37.73
2023-04-08T11:11:10.950Z,36.95
2023-04-08T11:13:42.828Z,37.30
2023-04-08T11:16:18.129Z,37.28
2023-04-08T11:18:46.042Z,36.67
2023-04-08T11:21:12.812Z,36.83
2023-04-08T11:23:39.420Z,36.53
2023-04-08T11:26:06.550Z,35.45
2023-04-08T11:28:36.865Z,35.66
2023-04-08T11:31:06.308Z,36.46
2023-04-08T11:33:37.089Z,36.59
2023-04-08T11:36:12.592Z,34.65
2023-04-08T11:38:41.605Z,35.52
2023-04-08T11:41:08.300Z,34.89
2023-04-08T11:43:36.684Z,35.59
2023-04-08T11:46:12.979Z,33.23
2023-04-08T11:48:39.740Z,34.00
2023-04-08T11:51:12.515Z,35.24
2023-04-08T11:53:38.977Z,34.26
2023-04-08T11:56:22.907Z,36.38
2023-04-08T11:58:50.481Z,35.54
2023-04-08T12:01:17.004Z,35.22
2023-04-08T12:04:01.416Z,36.04
2023-04-08T12:06:29.433Z,35.81
2023-04-08T12:08:57.066Z,35.14
2023-04-08T12:11:23.835Z,34.55
2023-04-08T12:13:51.104Z,34.33
2023-04-08T12:16:18.812Z,34.06
2023-04-08T12:18:45.424Z,34.94
2023-04-08T12:21:12.039Z,34.13
2023-04-08T12:23:38.474Z,32.92
2023-04-08T12:26:08.122Z,34.18
2023-04-08T12:28:37.797Z,32.80
2023-04-08T12:31:07.636Z,33.72
2023-04-08T12:33:37.871Z,32.96
2023-04-08T12:36:07.297Z,32.32
2023-04-08T12:38:34.873Z,33.28
2023-04-08T12:41:01.552Z,33.05
2023-04-08T12:43:28.094Z,35.24
2023-04-08T12:45:54.627Z,34.55
2023-04-08T12:48:21.134Z,32.48
2023-04-08T12:50:47.584Z,32.71
2023-04-08T12:53:14.267Z,35.49
2023-04-08T12:55:42.612Z,34.39
2023-04-08T12:58:10.330Z,34.23
2023-04-08T13:00:40.308Z,35.25
2023-04-08T13:03:07.190Z,34.75
2023-04-08T13:05:43.272Z,35.64
2023-04-08T13:08:14.231Z,35.29
2023-04-08T13:10:42.124Z,34.78
2023-04-08T13:13:08.659Z,35.27
2023-04-08T13:15:38.106Z,34.05
2023-04-08T13:18:06.058Z,35.40
2023-04-08T13:20:36.710Z,32.39
2023-04-08T13:23:05.634Z,31.30
2023-04-08T13:25:37.243Z,32.17
2023-04-08T13:28:06.889Z,33.60
2023-04-08T13:30:35.635Z,34.24
2023-04-08T13:33:02.207Z,35.17
2023-04-08T13:35:31.224Z,34.79
2023-04-08T13:37:57.726Z,35.09
2023-04-08T13:40:24.181Z,35.70
2023-04-08T13:42:50.707Z,36.15
2023-04-08T13:45:17.186Z,34.22
2023-04-08T13:47:43.622Z,35.15
2023-04-08T13:50:10.861Z,34.17
2023-04-08T13:52:37.551Z,33.90
2023-04-08T13:55:07.355Z,32.93
2023-04-08T13:57:37.491Z,32.77
2023-04-08T14:00:07.859Z,32.38
2023-04-08T14:02:37.470Z,32.49
2023-04-08T14:05:07.242Z,31.86
2023-04-08T14:07:37.484Z,33.33
2023-04-08T14:10:07.796Z,33.79
2023-04-08T14:12:39.503Z,33.74
2023-04-08T14:15:06.582Z,31.72
2023-04-08T14:17:36.202Z,32.72
2023-04-08T14:20:05.322Z,31.00
2023-04-08T14:22:32.002Z,30.98
2023-04-08T14:24:58.565Z,31.71
2023-04-08T14:27:25.344Z,32.27
2023-04-08T14:29:51.805Z,32.31
2023-04-08T14:32:18.346Z,30.98
2023-04-08T14:34:45.000Z,31.91
2023-04-08T14:37:12.232Z,30.79
2023-04-08T14:39:38.715Z,31.32
2023-04-08T14:42:07.262Z,31.19
2023-04-08T14:44:33.766Z,31.04
2023-04-08T14:47:00.235Z,31.07
2023-04-08T14:49:26.710Z,31.41
2023-04-08T14:51:53.586Z,32.04
2023-04-08T14:54:20.391Z,32.66
2023-04-08T14:56:47.155Z,31.13
2023-04-08T14:59:13.644Z,30.60
2023-04-08T15:01:41.299Z,30.99
2023-04-08T15:04:10.747Z,31.50
2023-04-08T15:06:40.489Z,31.48
2023-04-08T15:09:12.386Z,32.35
2023-04-08T15:11:38.898Z,32.15
2023-04-08T15:14:05.499Z,33.48
2023-04-08T15:16:32.164Z,34.80
2023-04-08T15:19:00.368Z,35.80
2023-04-08T15:21:27.221Z,35.49
2023-04-08T15:23:54.142Z,35.29
2023-04-08T15:26:21.642Z,34.71
2023-04-08T15:28:48.218Z,34.81
2023-04-08T15:31:14.688Z,34.52
2023-04-08T15:33:42.980Z,35.78
2023-04-08T15:36:10.037Z,35.25
2023-04-08T15:38:38.293Z,35.76
2023-04-08T15:41:05.005Z,35.40
2023-04-08T15:43:31.480Z,34.55
2023-04-08T15:45:57.950Z,34.99
2023-04-08T15:48:24.426Z,36.52
2023-04-08T15:50:53.718Z,35.99
2023-04-08T15:53:20.589Z,36.73
2023-04-08T15:55:47.234Z,36.17
2023-04-08T15:58:13.710Z,36.24
2023-04-08T16:00:40.458Z,37.40
2023-04-08T16:03:11.996Z,37.44
2023-04-08T16:05:41.495Z,36.33
2023-04-08T16:08:11.665Z,37.16
2023-04-08T16:10:39.546Z,38.34
2023-04-08T16:13:08.370Z,37.71
2023-04-08T16:15:38.840Z,37.23
2023-04-08T16:18:09.914Z,36.08
2023-04-08T16:20:39.405Z,36.21
2023-04-08T16:23:07.495Z,36.74
2023-04-08T16:25:33.973Z,37.99
2023-04-08T16:28:00.438Z,38.07
2023-04-08T16:30:27.455Z,37.07
2023-04-08T16:32:54.074Z,36.74
2023-04-08T16:35:22.293Z,37.83
2023-04-08T16:37:48.927Z,36.96
2023-04-08T16:40:15.561Z,37.66
2023-04-08T16:42:42.562Z,37.81
2023-04-08T16:45:09.513Z,37.56
2023-04-08T16:47:38.375Z,37.34
2023-04-08T16:50:10.378Z,37.22
2023-04-08T16:52:39.935Z,37.21
2023-04-08T16:57:40.841Z,37.97
2023-04-08T17:00:10.995Z,38.36
2023-04-08T17:02:41.688Z,38.30
2023-04-08T17:05:09.081Z,37.94
2023-04-08T17:07:38.282Z,38.09
2023-04-08T17:10:06.076Z,38.23
2023-04-08T17:12:33.092Z,38.43
2023-04-08T17:15:01.444Z,38.16
2023-04-08T17:17:27.989Z,38.67
2023-04-08T17:19:54.726Z,39.01
2023-04-08T17:22:23.225Z,38.94
2023-04-08T17:24:49.813Z,38.53
2023-04-08T17:27:16.368Z,38.50
2023-04-08T17:29:45.914Z,38.99
2023-04-08T17:32:12.754Z,38.20
2023-04-08T17:34:41.801Z,38.72
2023-04-08T17:37:11.147Z,39.65
2023-04-08T17:39:41.134Z,40.32
2023-04-08T17:42:08.383Z,41.19
2023-04-08T17:44:35.014Z,40.82
2023-04-08T17:47:01.930Z,41.70
2023-04-08T17:52:46.309Z,42.85
2023-04-08T17:55:16.200Z,43.37
2023-04-08T17:57:42.899Z,44.02
2023-04-08T18:00:10.002Z,44.36
2023-04-08T18:02:38.442Z,44.50
2023-04-08T18:05:07.693Z,44.68
2023-04-08T18:07:35.390Z,45.15
2023-04-08T18:10:02.651Z,45.22
2023-04-08T18:12:29.505Z,46.10
2023-04-08T18:14:59.061Z,46.76
2023-04-08T18:17:26.198Z,46.91
2023-04-08T18:19:52.865Z,46.70
2023-04-08T18:22:20.636Z,47.34
2023-04-08T18:24:47.298Z,47.98
2023-04-08T18:27:13.811Z,48.00
2023-04-08T18:29:40.522Z,48.03
2023-04-08T18:32:11.049Z,48.25
2023-04-08T18:34:40.632Z,48.47
2023-04-08T18:37:11.032Z,48.59
2023-04-08T18:39:40.971Z,48.62
2023-04-08T18:42:10.959Z,48.81
2023-04-08T18:44:41.121Z,49.08
2023-04-08T18:47:11.073Z,49.57
2023-04-08T18:49:40.699Z,49.63
2023-04-08T18:52:10.061Z,50.00
2023-04-08T18:54:39.666Z,50.17
2023-04-08T18:57:08.282Z,50.57
2023-04-08T18:59:35.280Z,50.84
2023-04-08T19:02:01.836Z,51.71
2023-04-08T19:04:28.443Z,52.14
2023-04-08T19:06:55.072Z,52.01
2023-04-08T19:09:21.684Z,52.47
2023-04-08T19:11:48.489Z,52.82
2023-04-08T19:14:15.542Z,53.13
2023-04-08T19:16:42.157Z,53.56
2023-04-08T19:19:08.704Z,53.46
2023-04-08T19:21:38.362Z,53.75
2023-04-08T19:24:08.534Z,53.66
2023-04-08T19:26:38.335Z,54.83
2023-04-08T19:29:04.798Z,54.19
2023-04-08T19:31:31.357Z,54.62
2023-04-08T19:33:57.872Z,54.77
2023-04-08T19:36:24.353Z,54.88
2023-04-08T19:38:51.067Z,55.15
2023-04-08T19:41:17.613Z,55.04
2023-04-08T19:43:44.120Z,55.17
2023-04-08T19:46:10.751Z,55.31
2023-04-08T19:48:37.277Z,55.21
2023-04-08T19:51:03.872Z,55.47
2023-04-08T19:53:30.740Z,55.56
2023-04-08T19:56:01.750Z,56.02
2023-04-08T19:58:28.408Z,56.54
2023-04-08T20:00:54.827Z,56.57
2023-04-08T20:03:21.540Z,57.44
2023-04-08T20:05:48.210Z,57.37
2023-04-08T20:08:15.139Z,57.21
2023-04-08T20:10:42.446Z,57.78
2023-04-08T20:13:08.968Z,57.61
2023-04-08T20:15:35.731Z,57.78
2023-04-08T20:18:02.814Z,57.97
2023-04-08T20:20:30.124Z,58.21
2023-04-08T20:22:56.612Z,58.81
2023-04-08T20:25:23.221Z,58.90
2023-04-08T20:27:49.735Z,59.26
2023-04-08T20:30:16.696Z,59.47
2023-04-08T20:32:43.265Z,59.75
2023-04-08T20:35:13.426Z,59.53
2023-04-08T20:37:40.098Z,59.77
2023-04-08T20:40:08.322Z,59.92
2023-04-08T20:42:35.135Z,59.97
2023-04-08T20:45:01.851Z,59.84
2023-04-08T20:47:28.604Z,60.21
2023-04-08T20:49:55.130Z,60.44
2023-04-08T20:52:21.838Z,61.10
2023-04-08T20:54:48.318Z,61.13
2023-04-08T20:57:14.746Z,61.41
2023-04-08T20:59:44.040Z,61.37
2023-04-08T21:02:13.819Z,61.24
2023-04-08T21:04:43.972Z,60.99
2023-04-08T21:07:13.511Z,62.06
2023-04-08T21:09:43.221Z,62.68
2023-04-08T21:12:13.525Z,62.64
2023-04-08T21:14:45.225Z,62.59
2023-04-08T21:17:12.052Z,63.19
2023-04-08T21:19:38.516Z,63.04
2023-04-08T21:22:05.956Z,63.20
2023-04-08T21:24:33.041Z,63.56
2023-04-08T21:26:59.492Z,63.82
2023-04-08T21:29:26.009Z,63.28
2023-04-08T21:31:52.598Z,63.88
2023-04-08T21:34:19.097Z,64.69
2023-04-08T21:36:45.564Z,65.20
2023-04-08T21:39:15.145Z,65.48
2023-04-08T21:41:44.566Z,65.97
2023-04-08T21:44:14.114Z,66.31
2023-04-08T21:46:42.719Z,66.30
2023-04-08T21:49:13.505Z,66.94
2023-04-08T21:51:43.159Z,67.32
2023-04-08T21:54:09.658Z,67.89
2023-04-08T21:56:36.084Z,67.94
2023-04-08T21:59:02.502Z,68.18
2023-04-08T22:01:29.040Z,68.56
2023-04-08T22:03:56.253Z,69.06
2023-04-08T22:06:32.212Z,68.36
2023-04-08T22:08:59.574Z,68.75
2023-04-08T22:11:26.114Z,68.63
2023-04-08T22:13:52.610Z,68.24
2023-04-08T22:16:19.127Z,67.87
2023-04-08T22:18:45.700Z,68.19
2023-04-08T22:21:14.637Z,70.11
2023-04-08T22:23:42.002Z,69.10
2023-04-08T22:26:09.144Z,69.27
2023-04-08T22:28:35.717Z,69.17
2023-04-08T22:31:02.205Z,68.92
2023-04-08T22:33:28.744Z,69.80
2023-04-08T22:35:57.339Z,69.37
2023-04-08T22:38:23.912Z,69.50
2023-04-08T22:40:50.416Z,70.57
2023-04-08T22:43:16.832Z,71.38
2023-04-08T22:45:43.884Z,71.55
2023-04-08T22:48:10.624Z,71.02
2023-04-08T22:50:37.088Z,70.90
2023-04-08T22:53:03.800Z,70.73
2023-04-08T22:55:31.053Z,70.70
2023-04-08T22:57:57.658Z,70.84
2023-04-08T23:00:24.110Z,72.79
2023-04-08T23:02:50.730Z,72.82
2023-04-08T23:05:18.285Z,72.25
2023-04-08T23:07:47.072Z,72.36
2023-04-08T23:10:13.618Z,72.50
2023-04-08T23:12:40.485Z,72.86
2023-04-08T23:15:07.366Z,72.31
2023-04-08T23:17:33.799Z,71.65
2023-04-08T23:20:00.283Z,71.95
2023-04-08T23:22:26.753Z,73.06
2023-04-08T23:24:53.531Z,72.40
2023-04-08T23:27:20.339Z,72.37
2023-04-08T23:29:50.784Z,72.18
2023-04-08T23:32:18.472Z,73.65
2023-04-08T23:34:44.921Z,73.78
2023-04-08T23:37:11.377Z,74.06
2023-04-08T23:39:37.841Z,72.53
2023-04-08T23:42:04.340Z,72.28
2023-04-08T23:44:30.808Z,71.33
2023-04-08T23:46:57.256Z,72.00
2023-04-08T23:49:23.749Z,72.27
2023-04-08T23:51:50.318Z,72.26
2023-04-08T23:54:18.945Z,72.36
2023-04-08T23:56:45.480Z,72.62
2023-04-08T23:59:11.905Z,72.97
